sensor_id;sensor_type;location;lat;lon;timestamp;temperature;humidity
12111;DHT22;6119;52.372;8.990;2024-01-06T00:02:26;7.80;99.90
12111;DHT22;6119;52.372;8.990;2024-01-06T00:05:13;7.80;99.90
12111;DHT22;6119;52.372;8.990;2024-01-06T00:07:59;7.80;99.90
12111;DHT22;6119;52.372;8.990;2024-01-06T00:10:47;7.80;99.90
12111;DHT22;6119;52.372;8.990;2024-01-06T00:13:34;7.80;99.90
12111;DHT22;6119;52.372;8.990;2024-01-06T00:16:21;7.80;99.90
12111;DHT22;6119;52.372;8.990;2024-01-06T00:19:12;7.80;99.90
12111;DHT22;6119;52.372;8.990;2024-01-06T00:21:59;7.70;99.90
12111;DHT22;6119;52.372;8.990;2024-01-06T00:24:46;7.60;99.90
12111;DHT22;6119;52.372;8.990;2024-01-06T00:27:35;7.70;99.90
12111;DHT22;6119;52.372;8.990;2024-01-06T00:30:22;7.70;99.90
12111;DHT22;6119;52.372;8.990;2024-01-06T00:33:09;7.70;99.90
12111;DHT22;6119;52.372;8.990;2024-01-06T00:35:56;7.70;99.90
12111;DHT22;6119;52.372;8.990;2024-01-06T00:38:42;7.70;99.90
12111;DHT22;6119;52.372;8.990;2024-01-06T00:41:29;7.60;99.90
12111;DHT22;6119;52.372;8.990;2024-01-06T00:44:17;7.70;99.90
12111;DHT22;6119;52.372;8.990;2024-01-06T00:47:03;7.60;99.90
12111;DHT22;6119;52.372;8.990;2024-01-06T00:49:50;7.70;99.90
12111;DHT22;6119;52.372;8.990;2024-01-06T00:52:36;7.70;99.90
12111;DHT22;6119;52.372;8.990;2024-01-06T00:55:23;7.70;99.90
12111;DHT22;6119;52.372;8.990;2024-01-06T00:58:10;7.60;99.90
12111;DHT22;6119;52.372;8.990;2024-01-06T01:00:57;7.70;99.90
12111;DHT22;6119;52.372;8.990;2024-01-06T01:03:44;7.70;99.90
12111;DHT22;6119;52.372;8.990;2024-01-06T01:06:31;7.70;99.90
12111;DHT22;6119;52.372;8.990;2024-01-06T01:09:18;7.70;99.90
12111;DHT22;6119;52.372;8.990;2024-01-06T01:12:05;7.70;99.90
12111;DHT22;6119;52.372;8.990;2024-01-06T01:14:52;7.80;99.90
12111;DHT22;6119;52.372;8.990;2024-01-06T01:17:40;7.70;99.90
12111;DHT22;6119;52.372;8.990;2024-01-06T01:20:27;7.80;99.90
12111;DHT22;6119;52.372;8.990;2024-01-06T01:23:13;7.70;99.90
12111;DHT22;6119;52.372;8.990;2024-01-06T01:26:00;7.80;99.90
12111;DHT22;6119;52.372;8.990;2024-01-06T01:28:46;7.70;99.90
12111;DHT22;6119;52.372;8.990;2024-01-06T01:31:33;7.70;99.90
12111;DHT22;6119;52.372;8.990;2024-01-06T01:34:21;7.70;99.90
12111;DHT22;6119;52.372;8.990;2024-01-06T01:37:08;7.60;99.90
12111;DHT22;6119;52.372;8.990;2024-01-06T01:39:54;7.70;99.90
12111;DHT22;6119;52.372;8.990;2024-01-06T01:42:42;7.70;99.90
12111;DHT22;6119;52.372;8.990;2024-01-06T01:45:29;7.70;99.90
12111;DHT22;6119;52.372;8.990;2024-01-06T01:48:15;7.70;99.90
12111;DHT22;6119;52.372;8.990;2024-01-06T01:51:04;7.70;99.90
12111;DHT22;6119;52.372;8.990;2024-01-06T01:53:51;7.60;99.90
12111;DHT22;6119;52.372;8.990;2024-01-06T01:56:39;7.70;99.90
12111;DHT22;6119;52.372;8.990;2024-01-06T01:59:26;7.70;99.90
12111;DHT22;6119;52.372;8.990;2024-01-06T02:02:13;7.70;99.90
12111;DHT22;6119;52.372;8.990;2024-01-06T02:05:00;7.70;99.90
12111;DHT22;6119;52.372;8.990;2024-01-06T02:07:48;7.60;99.90
12111;DHT22;6119;52.372;8.990;2024-01-06T02:10:36;7.60;99.90
12111;DHT22;6119;52.372;8.990;2024-01-06T02:13:23;7.60;99.90
12111;DHT22;6119;52.372;8.990;2024-01-06T02:16:10;7.60;99.90
12111;DHT22;6119;52.372;8.990;2024-01-06T02:18:56;7.50;99.90
12111;DHT22;6119;52.372;8.990;2024-01-06T02:24:33;7.60;99.90
12111;DHT22;6119;52.372;8.990;2024-01-06T02:27:20;7.60;99.90
12111;DHT22;6119;52.372;8.990;2024-01-06T02:30:07;7.50;99.90
12111;DHT22;6119;52.372;8.990;2024-01-06T02:32:54;7.50;99.90
12111;DHT22;6119;52.372;8.990;2024-01-06T02:35:41;7.40;99.90
12111;DHT22;6119;52.372;8.990;2024-01-06T02:38:28;7.40;99.90
12111;DHT22;6119;52.372;8.990;2024-01-06T02:41:16;7.40;99.90
12111;DHT22;6119;52.372;8.990;2024-01-06T02:44:03;7.40;99.90
12111;DHT22;6119;52.372;8.990;2024-01-06T02:46:49;7.40;99.90
12111;DHT22;6119;52.372;8.990;2024-01-06T02:49:36;7.40;99.90
12111;DHT22;6119;52.372;8.990;2024-01-06T02:52:23;7.30;99.90
12111;DHT22;6119;52.372;8.990;2024-01-06T02:55:09;7.40;99.90
12111;DHT22;6119;52.372;8.990;2024-01-06T02:57:57;7.40;99.90
12111;DHT22;6119;52.372;8.990;2024-01-06T03:00:44;7.40;99.90
12111;DHT22;6119;52.372;8.990;2024-01-06T03:03:31;7.40;99.90
12111;DHT22;6119;52.372;8.990;2024-01-06T03:06:18;7.40;99.90
12111;DHT22;6119;52.372;8.990;2024-01-06T03:09:04;7.40;99.90
12111;DHT22;6119;52.372;8.990;2024-01-06T03:11:51;7.40;99.90
12111;DHT22;6119;52.372;8.990;2024-01-06T03:14:39;7.40;99.90
12111;DHT22;6119;52.372;8.990;2024-01-06T03:17:25;7.40;99.90
12111;DHT22;6119;52.372;8.990;2024-01-06T03:20:14;7.40;99.90
12111;DHT22;6119;52.372;8.990;2024-01-06T03:23:00;7.40;99.90
12111;DHT22;6119;52.372;8.990;2024-01-06T03:25:47;7.40;99.90
12111;DHT22;6119;52.372;8.990;2024-01-06T03:28:34;7.40;99.90
12111;DHT22;6119;52.372;8.990;2024-01-06T03:31:21;7.40;99.90
12111;DHT22;6119;52.372;8.990;2024-01-06T03:34:08;7.40;99.90
12111;DHT22;6119;52.372;8.990;2024-01-06T03:36:56;7.40;99.90
12111;DHT22;6119;52.372;8.990;2024-01-06T03:39:43;7.40;99.90
12111;DHT22;6119;52.372;8.990;2024-01-06T03:42:29;7.40;99.90
12111;DHT22;6119;52.372;8.990;2024-01-06T03:45:16;7.40;99.90
12111;DHT22;6119;52.372;8.990;2024-01-06T03:48:05;7.40;99.90
12111;DHT22;6119;52.372;8.990;2024-01-06T03:50:52;7.40;99.90
12111;DHT22;6119;52.372;8.990;2024-01-06T03:53:38;7.30;99.90
12111;DHT22;6119;52.372;8.990;2024-01-06T03:56:25;7.30;99.90
12111;DHT22;6119;52.372;8.990;2024-01-06T03:59:12;7.40;99.90
12111;DHT22;6119;52.372;8.990;2024-01-06T04:01:58;7.40;99.90
12111;DHT22;6119;52.372;8.990;2024-01-06T04:04:46;7.40;99.90
12111;DHT22;6119;52.372;8.990;2024-01-06T04:07:32;7.40;99.90
12111;DHT22;6119;52.372;8.990;2024-01-06T04:10:19;7.40;99.90
12111;DHT22;6119;52.372;8.990;2024-01-06T04:13:05;7.40;99.90
12111;DHT22;6119;52.372;8.990;2024-01-06T04:15:52;7.40;99.90
12111;DHT22;6119;52.372;8.990;2024-01-06T04:18:38;7.40;99.90
12111;DHT22;6119;52.372;8.990;2024-01-06T04:21:27;7.30;99.90
12111;DHT22;6119;52.372;8.990;2024-01-06T04:24:13;7.40;99.90
12111;DHT22;6119;52.372;8.990;2024-01-06T04:27:00;7.30;99.90
12111;DHT22;6119;52.372;8.990;2024-01-06T04:29:47;7.30;99.90
12111;DHT22;6119;52.372;8.990;2024-01-06T04:32:33;7.30;99.90
12111;DHT22;6119;52.372;8.990;2024-01-06T04:35:20;7.30;99.90
12111;DHT22;6119;52.372;8.990;2024-01-06T04:38:08;7.30;99.90
12111;DHT22;6119;52.372;8.990;2024-01-06T04:40:56;7.40;99.90
12111;DHT22;6119;52.372;8.990;2024-01-06T04:43:42;7.30;99.90
12111;DHT22;6119;52.372;8.990;2024-01-06T04:46:29;7.40;99.90
12111;DHT22;6119;52.372;8.990;2024-01-06T04:49:16;7.30;99.90
12111;DHT22;6119;52.372;8.990;2024-01-06T04:52:03;7.30;99.90
12111;DHT22;6119;52.372;8.990;2024-01-06T04:54:51;7.20;99.90
12111;DHT22;6119;52.372;8.990;2024-01-06T04:57:38;7.20;99.90
12111;DHT22;6119;52.372;8.990;2024-01-06T05:00:24;7.20;99.90
12111;DHT22;6119;52.372;8.990;2024-01-06T05:03:11;7.20;99.90
12111;DHT22;6119;52.372;8.990;2024-01-06T05:05:58;7.10;99.90
12111;DHT22;6119;52.372;8.990;2024-01-06T05:08:45;7.10;99.90
12111;DHT22;6119;52.372;8.990;2024-01-06T05:11:34;7.10;99.90
12111;DHT22;6119;52.372;8.990;2024-01-06T05:14:21;7.10;99.90
12111;DHT22;6119;52.372;8.990;2024-01-06T05:17:07;7.10;99.90
12111;DHT22;6119;52.372;8.990;2024-01-06T05:19:55;7.10;99.90
12111;DHT22;6119;52.372;8.990;2024-01-06T05:22:42;7.10;99.90
12111;DHT22;6119;52.372;8.990;2024-01-06T05:25:28;7.10;99.90
12111;DHT22;6119;52.372;8.990;2024-01-06T05:28:17;7.10;99.90
12111;DHT22;6119;52.372;8.990;2024-01-06T05:31:04;7.00;99.90
12111;DHT22;6119;52.372;8.990;2024-01-06T05:33:51;7.10;99.90
12111;DHT22;6119;52.372;8.990;2024-01-06T05:36:37;7.10;99.90
12111;DHT22;6119;52.372;8.990;2024-01-06T05:39:24;7.10;99.90
12111;DHT22;6119;52.372;8.990;2024-01-06T05:42:11;7.10;99.90
12111;DHT22;6119;52.372;8.990;2024-01-06T05:44:59;7.10;99.90
12111;DHT22;6119;52.372;8.990;2024-01-06T05:47:45;7.10;99.90
12111;DHT22;6119;52.372;8.990;2024-01-06T05:50:32;7.10;99.90
12111;DHT22;6119;52.372;8.990;2024-01-06T05:53:19;7.10;99.90
12111;DHT22;6119;52.372;8.990;2024-01-06T05:56:06;7.10;99.90
12111;DHT22;6119;52.372;8.990;2024-01-06T05:58:55;7.10;99.90
12111;DHT22;6119;52.372;8.990;2024-01-06T06:01:43;7.10;99.90
12111;DHT22;6119;52.372;8.990;2024-01-06T06:04:30;7.10;99.90
12111;DHT22;6119;52.372;8.990;2024-01-06T06:07:17;7.10;99.90
12111;DHT22;6119;52.372;8.990;2024-01-06T06:10:05;7.30;99.90
12111;DHT22;6119;52.372;8.990;2024-01-06T06:12:52;7.10;99.90
12111;DHT22;6119;52.372;8.990;2024-01-06T06:15:38;7.10;99.90
12111;DHT22;6119;52.372;8.990;2024-01-06T06:18:26;7.10;99.90
12111;DHT22;6119;52.372;8.990;2024-01-06T06:21:13;7.10;99.90
12111;DHT22;6119;52.372;8.990;2024-01-06T06:24:00;7.20;99.90
12111;DHT22;6119;52.372;8.990;2024-01-06T06:26:46;7.20;99.90
12111;DHT22;6119;52.372;8.990;2024-01-06T06:29:33;7.20;99.90
12111;DHT22;6119;52.372;8.990;2024-01-06T06:32:19;7.20;99.90
12111;DHT22;6119;52.372;8.990;2024-01-06T06:35:08;7.20;99.90
12111;DHT22;6119;52.372;8.990;2024-01-06T06:37:55;7.10;99.90
12111;DHT22;6119;52.372;8.990;2024-01-06T06:40:41;7.20;99.90
12111;DHT22;6119;52.372;8.990;2024-01-06T06:43:28;7.10;99.90
12111;DHT22;6119;52.372;8.990;2024-01-06T06:46:14;7.20;99.90
12111;DHT22;6119;52.372;8.990;2024-01-06T06:49:01;7.10;99.90
12111;DHT22;6119;52.372;8.990;2024-01-06T06:51:49;7.10;99.90
12111;DHT22;6119;52.372;8.990;2024-01-06T06:54:36;7.20;99.90
12111;DHT22;6119;52.372;8.990;2024-01-06T06:57:22;7.10;99.90
12111;DHT22;6119;52.372;8.990;2024-01-06T07:00:09;7.10;99.90
12111;DHT22;6119;52.372;8.990;2024-01-06T07:02:56;7.10;99.90
12111;DHT22;6119;52.372;8.990;2024-01-06T07:05:44;7.10;99.90
12111;DHT22;6119;52.372;8.990;2024-01-06T07:08:32;7.00;99.90
12111;DHT22;6119;52.372;8.990;2024-01-06T07:11:19;7.10;99.90
12111;DHT22;6119;52.372;8.990;2024-01-06T07:14:06;6.80;99.90
12111;DHT22;6119;52.372;8.990;2024-01-06T07:16:52;6.80;99.90
12111;DHT22;6119;52.372;8.990;2024-01-06T07:19:38;6.80;99.90
12111;DHT22;6119;52.372;8.990;2024-01-06T07:22:25;6.80;99.90
12111;DHT22;6119;52.372;8.990;2024-01-06T07:25:13;6.70;99.90
12111;DHT22;6119;52.372;8.990;2024-01-06T07:27:59;6.70;99.90
12111;DHT22;6119;52.372;8.990;2024-01-06T07:30:46;6.70;99.90
12111;DHT22;6119;52.372;8.990;2024-01-06T07:33:33;6.60;99.90
12111;DHT22;6119;52.372;8.990;2024-01-06T07:36:20;6.60;99.90
12111;DHT22;6119;52.372;8.990;2024-01-06T07:39:07;6.60;99.90
12111;DHT22;6119;52.372;8.990;2024-01-06T07:41:55;6.50;99.90
12111;DHT22;6119;52.372;8.990;2024-01-06T07:44:42;6.50;99.90
12111;DHT22;6119;52.372;8.990;2024-01-06T07:47:30;6.40;99.90
12111;DHT22;6119;52.372;8.990;2024-01-06T07:50:17;6.40;99.90
12111;DHT22;6119;52.372;8.990;2024-01-06T07:53:04;6.40;99.90
12111;DHT22;6119;52.372;8.990;2024-01-06T07:55:50;6.50;99.90
12111;DHT22;6119;52.372;8.990;2024-01-06T07:58:38;6.40;99.90
12111;DHT22;6119;52.372;8.990;2024-01-06T08:01:25;6.40;99.90
12111;DHT22;6119;52.372;8.990;2024-01-06T08:04:12;6.40;99.90
12111;DHT22;6119;52.372;8.990;2024-01-06T08:06:59;6.40;99.90
12111;DHT22;6119;52.372;8.990;2024-01-06T08:09:46;6.20;99.90
12111;DHT22;6119;52.372;8.990;2024-01-06T08:12:32;6.10;99.90
12111;DHT22;6119;52.372;8.990;2024-01-06T08:15:21;6.20;99.90
12111;DHT22;6119;52.372;8.990;2024-01-06T08:18:08;6.10;99.90
12111;DHT22;6119;52.372;8.990;2024-01-06T08:20:55;6.20;99.90
12111;DHT22;6119;52.372;8.990;2024-01-06T08:23:41;6.10;99.90
12111;DHT22;6119;52.372;8.990;2024-01-06T08:26:28;6.20;99.90
12111;DHT22;6119;52.372;8.990;2024-01-06T08:29:14;6.20;99.90
12111;DHT22;6119;52.372;8.990;2024-01-06T08:32:03;6.10;99.90
12111;DHT22;6119;52.372;8.990;2024-01-06T08:34:50;5.90;99.90
12111;DHT22;6119;52.372;8.990;2024-01-06T08:37:37;6.00;99.90
12111;DHT22;6119;52.372;8.990;2024-01-06T08:40:23;6.00;99.90
12111;DHT22;6119;52.372;8.990;2024-01-06T08:43:10;6.10;99.90
12111;DHT22;6119;52.372;8.990;2024-01-06T08:45:56;6.00;99.90
12111;DHT22;6119;52.372;8.990;2024-01-06T08:48:44;6.10;99.90
12111;DHT22;6119;52.372;8.990;2024-01-06T08:51:31;6.20;99.90
12111;DHT22;6119;52.372;8.990;2024-01-06T08:54:17;6.20;99.90
12111;DHT22;6119;52.372;8.990;2024-01-06T08:57:04;5.20;99.90
12111;DHT22;6119;52.372;8.990;2024-01-06T08:59:52;6.20;99.90
12111;DHT22;6119;52.372;8.990;2024-01-06T09:02:38;6.20;99.90
12111;DHT22;6119;52.372;8.990;2024-01-06T09:05:26;6.10;99.90
12111;DHT22;6119;52.372;8.990;2024-01-06T09:08:13;6.20;99.90
12111;DHT22;6119;52.372;8.990;2024-01-06T09:11:00;6.30;99.90
12111;DHT22;6119;52.372;8.990;2024-01-06T09:13:47;6.20;99.90
12111;DHT22;6119;52.372;8.990;2024-01-06T09:16:33;6.30;99.90
12111;DHT22;6119;52.372;8.990;2024-01-06T09:19:20;6.20;99.90
12111;DHT22;6119;52.372;8.990;2024-01-06T09:22:08;6.20;99.90
12111;DHT22;6119;52.372;8.990;2024-01-06T09:24:55;6.10;99.90
12111;DHT22;6119;52.372;8.990;2024-01-06T09:27:41;6.10;99.90
12111;DHT22;6119;52.372;8.990;2024-01-06T09:30:28;6.10;99.90
12111;DHT22;6119;52.372;8.990;2024-01-06T09:33:15;6.10;99.90
12111;DHT22;6119;52.372;8.990;2024-01-06T09:36:04;6.00;99.90
12111;DHT22;6119;52.372;8.990;2024-01-06T09:38:52;5.90;99.90
12111;DHT22;6119;52.372;8.990;2024-01-06T09:41:39;5.90;99.90
12111;DHT22;6119;52.372;8.990;2024-01-06T09:44:25;5.90;99.90
12111;DHT22;6119;52.372;8.990;2024-01-06T09:47:13;5.90;99.90
12111;DHT22;6119;52.372;8.990;2024-01-06T09:50:01;5.90;99.90
12111;DHT22;6119;52.372;8.990;2024-01-06T09:52:50;6.00;99.90
12111;DHT22;6119;52.372;8.990;2024-01-06T09:55:42;5.90;99.90
12111;DHT22;6119;52.372;8.990;2024-01-06T09:58:30;6.00;99.90
12111;DHT22;6119;52.372;8.990;2024-01-06T10:01:19;6.00;99.90
12111;DHT22;6119;52.372;8.990;2024-01-06T10:04:06;6.00;99.90
12111;DHT22;6119;52.372;8.990;2024-01-06T10:06:53;6.00;99.90
12111;DHT22;6119;52.372;8.990;2024-01-06T10:09:41;6.00;99.90
12111;DHT22;6119;52.372;8.990;2024-01-06T10:12:29;6.00;99.90
12111;DHT22;6119;52.372;8.990;2024-01-06T10:15:17;6.00;99.90
12111;DHT22;6119;52.372;8.990;2024-01-06T10:18:06;6.00;99.90
12111;DHT22;6119;52.372;8.990;2024-01-06T10:20:54;6.00;99.90
12111;DHT22;6119;52.372;8.990;2024-01-06T10:23:40;6.00;99.90
12111;DHT22;6119;52.372;8.990;2024-01-06T10:26:29;6.00;99.90
12111;DHT22;6119;52.372;8.990;2024-01-06T10:29:18;6.00;99.90
12111;DHT22;6119;52.372;8.990;2024-01-06T10:32:05;6.00;99.90
12111;DHT22;6119;52.372;8.990;2024-01-06T10:34:52;6.00;99.90
12111;DHT22;6119;52.372;8.990;2024-01-06T10:37:42;6.00;99.90
12111;DHT22;6119;52.372;8.990;2024-01-06T10:40:28;6.00;99.90
12111;DHT22;6119;52.372;8.990;2024-01-06T10:43:15;6.00;99.90
12111;DHT22;6119;52.372;8.990;2024-01-06T10:46:04;7.60;99.90
12111;DHT22;6119;52.372;8.990;2024-01-06T10:48:51;6.00;99.90
12111;DHT22;6119;52.372;8.990;2024-01-06T10:51:38;6.00;99.90
12111;DHT22;6119;52.372;8.990;2024-01-06T10:54:27;5.80;99.90
12111;DHT22;6119;52.372;8.990;2024-01-06T10:57:15;5.80;99.90
12111;DHT22;6119;52.372;8.990;2024-01-06T11:00:04;5.80;99.90
12111;DHT22;6119;52.372;8.990;2024-01-06T11:02:53;5.80;99.90
12111;DHT22;6119;52.372;8.990;2024-01-06T11:05:41;5.70;99.90
12111;DHT22;6119;52.372;8.990;2024-01-06T11:08:28;5.80;99.90
12111;DHT22;6119;52.372;8.990;2024-01-06T11:11:18;5.90;99.90
12111;DHT22;6119;52.372;8.990;2024-01-06T11:14:26;5.80;99.90
12111;DHT22;6119;52.372;8.990;2024-01-06T11:17:49;5.80;99.90
12111;DHT22;6119;52.372;8.990;2024-01-06T11:20:37;5.90;99.90
12111;DHT22;6119;52.372;8.990;2024-01-06T11:23:23;5.90;99.90
12111;DHT22;6119;52.372;8.990;2024-01-06T11:26:10;5.90;99.90
12111;DHT22;6119;52.372;8.990;2024-01-06T11:28:56;5.90;99.90
12111;DHT22;6119;52.372;8.990;2024-01-06T11:31:43;5.70;99.90
12111;DHT22;6119;52.372;8.990;2024-01-06T11:34:51;5.70;99.90
12111;DHT22;6119;52.372;8.990;2024-01-06T11:37:55;5.60;99.90
12111;DHT22;6119;52.372;8.990;2024-01-06T11:40:43;5.70;99.90
12111;DHT22;6119;52.372;8.990;2024-01-06T11:43:30;5.70;99.90
12111;DHT22;6119;52.372;8.990;2024-01-06T11:46:20;5.60;99.90
12111;DHT22;6119;52.372;8.990;2024-01-06T11:49:08;5.70;99.90
12111;DHT22;6119;52.372;8.990;2024-01-06T11:51:57;5.60;99.90
12111;DHT22;6119;52.372;8.990;2024-01-06T11:54:45;5.60;99.90
12111;DHT22;6119;52.372;8.990;2024-01-06T11:57:32;5.60;99.90
12111;DHT22;6119;52.372;8.990;2024-01-06T12:00:18;5.60;99.90
12111;DHT22;6119;52.372;8.990;2024-01-06T12:03:05;5.60;99.90
12111;DHT22;6119;52.372;8.990;2024-01-06T12:05:59;5.60;99.90
12111;DHT22;6119;52.372;8.990;2024-01-06T12:08:46;5.50;99.90
12111;DHT22;6119;52.372;8.990;2024-01-06T12:11:34;5.60;99.90
12111;DHT22;6119;52.372;8.990;2024-01-06T12:14:22;5.50;99.90
12111;DHT22;6119;52.372;8.990;2024-01-06T12:17:10;5.50;99.90
12111;DHT22;6119;52.372;8.990;2024-01-06T12:19:58;5.50;99.90
12111;DHT22;6119;52.372;8.990;2024-01-06T12:22:45;5.50;99.90
12111;DHT22;6119;52.372;8.990;2024-01-06T12:25:32;5.40;99.90
12111;DHT22;6119;52.372;8.990;2024-01-06T12:28:27;5.40;99.90
12111;DHT22;6119;52.372;8.990;2024-01-06T12:31:14;5.40;99.90
12111;DHT22;6119;52.372;8.990;2024-01-06T12:34:01;5.40;99.90
12111;DHT22;6119;52.372;8.990;2024-01-06T12:36:52;5.40;99.90
12111;DHT22;6119;52.372;8.990;2024-01-06T12:39:41;5.30;99.90
12111;DHT22;6119;52.372;8.990;2024-01-06T12:42:28;5.30;99.90
12111;DHT22;6119;52.372;8.990;2024-01-06T12:45:16;5.20;99.90
12111;DHT22;6119;52.372;8.990;2024-01-06T12:48:03;5.30;99.90
12111;DHT22;6119;52.372;8.990;2024-01-06T12:50:50;5.40;99.90
12111;DHT22;6119;52.372;8.990;2024-01-06T12:53:37;5.40;99.90
12111;DHT22;6119;52.372;8.990;2024-01-06T12:56:23;5.30;99.90
12111;DHT22;6119;52.372;8.990;2024-01-06T12:59:10;5.30;99.90
12111;DHT22;6119;52.372;8.990;2024-01-06T13:01:58;5.20;99.90
12111;DHT22;6119;52.372;8.990;2024-01-06T13:04:44;5.20;99.90
12111;DHT22;6119;52.372;8.990;2024-01-06T13:07:31;5.10;99.90
12111;DHT22;6119;52.372;8.990;2024-01-06T13:10:19;5.10;99.90
12111;DHT22;6119;52.372;8.990;2024-01-06T13:13:06;5.00;99.90
12111;DHT22;6119;52.372;8.990;2024-01-06T13:15:53;5.00;99.90
12111;DHT22;6119;52.372;8.990;2024-01-06T13:18:41;5.00;99.90
12111;DHT22;6119;52.372;8.990;2024-01-06T13:21:28;4.90;99.90
12111;DHT22;6119;52.372;8.990;2024-01-06T13:24:15;4.80;99.90
12111;DHT22;6119;52.372;8.990;2024-01-06T13:27:02;4.90;99.90
12111;DHT22;6119;52.372;8.990;2024-01-06T13:29:50;4.90;99.90
12111;DHT22;6119;52.372;8.990;2024-01-06T13:32:37;4.90;99.90
12111;DHT22;6119;52.372;8.990;2024-01-06T13:35:25;4.80;99.90
12111;DHT22;6119;52.372;8.990;2024-01-06T13:38:12;4.80;99.90
12111;DHT22;6119;52.372;8.990;2024-01-06T13:40:58;4.80;99.90
12111;DHT22;6119;52.372;8.990;2024-01-06T13:43:45;4.90;99.90
12111;DHT22;6119;52.372;8.990;2024-01-06T13:46:31;4.80;99.90
12111;DHT22;6119;52.372;8.990;2024-01-06T13:49:18;4.80;99.90
12111;DHT22;6119;52.372;8.990;2024-01-06T13:52:06;4.70;99.90
12111;DHT22;6119;52.372;8.990;2024-01-06T13:54:54;4.70;99.90
12111;DHT22;6119;52.372;8.990;2024-01-06T13:57:40;4.60;99.90
12111;DHT22;6119;52.372;8.990;2024-01-06T14:00:28;4.60;99.90
12111;DHT22;6119;52.372;8.990;2024-01-06T14:03:15;4.60;99.90
12111;DHT22;6119;52.372;8.990;2024-01-06T14:06:03;4.60;99.90
12111;DHT22;6119;52.372;8.990;2024-01-06T14:08:53;4.60;99.90
12111;DHT22;6119;52.372;8.990;2024-01-06T14:11:39;4.60;99.90
12111;DHT22;6119;52.372;8.990;2024-01-06T14:14:26;4.50;99.90
12111;DHT22;6119;52.372;8.990;2024-01-06T14:17:13;4.50;99.90
12111;DHT22;6119;52.372;8.990;2024-01-06T14:19:59;4.50;99.90
12111;DHT22;6119;52.372;8.990;2024-01-06T14:22:48;4.60;99.90
12111;DHT22;6119;52.372;8.990;2024-01-06T14:25:36;4.50;99.90
12111;DHT22;6119;52.372;8.990;2024-01-06T14:28:23;4.50;99.90
12111;DHT22;6119;52.372;8.990;2024-01-06T14:31:09;4.50;99.90
12111;DHT22;6119;52.372;8.990;2024-01-06T14:33:56;4.40;99.90
12111;DHT22;6119;52.372;8.990;2024-01-06T14:36:45;4.40;99.90
12111;DHT22;6119;52.372;8.990;2024-01-06T14:39:34;4.40;99.90
12111;DHT22;6119;52.372;8.990;2024-01-06T14:42:23;4.40;99.90
12111;DHT22;6119;52.372;8.990;2024-01-06T14:45:10;4.30;99.90
12111;DHT22;6119;52.372;8.990;2024-01-06T14:47:57;4.30;99.90
12111;DHT22;6119;52.372;8.990;2024-01-06T14:50:44;4.30;99.90
12111;DHT22;6119;52.372;8.990;2024-01-06T14:53:31;4.30;99.90
12111;DHT22;6119;52.372;8.990;2024-01-06T14:56:20;4.30;99.90
12111;DHT22;6119;52.372;8.990;2024-01-06T14:59:08;4.30;99.90
12111;DHT22;6119;52.372;8.990;2024-01-06T15:01:54;4.30;99.90
12111;DHT22;6119;52.372;8.990;2024-01-06T15:04:41;4.20;99.90
12111;DHT22;6119;52.372;8.990;2024-01-06T15:07:27;4.20;99.90
12111;DHT22;6119;52.372;8.990;2024-01-06T15:10:16;4.20;99.90
12111;DHT22;6119;52.372;8.990;2024-01-06T15:13:04;4.10;99.90
12111;DHT22;6119;52.372;8.990;2024-01-06T15:15:52;4.10;99.90
12111;DHT22;6119;52.372;8.990;2024-01-06T15:18:40;4.10;99.90
12111;DHT22;6119;52.372;8.990;2024-01-06T15:21:28;4.00;99.90
12111;DHT22;6119;52.372;8.990;2024-01-06T15:24:18;4.00;99.90
12111;DHT22;6119;52.372;8.990;2024-01-06T15:27:05;3.90;99.90
12111;DHT22;6119;52.372;8.990;2024-01-06T15:29:52;3.80;99.90
12111;DHT22;6119;52.372;8.990;2024-01-06T15:32:41;3.70;99.90
12111;DHT22;6119;52.372;8.990;2024-01-06T15:35:28;3.70;99.90
12111;DHT22;6119;52.372;8.990;2024-01-06T15:38:15;3.80;99.90
12111;DHT22;6119;52.372;8.990;2024-01-06T15:41:01;3.70;99.90
12111;DHT22;6119;52.372;8.990;2024-01-06T15:43:50;3.70;99.90
12111;DHT22;6119;52.372;8.990;2024-01-06T15:46:37;3.70;99.90
12111;DHT22;6119;52.372;8.990;2024-01-06T15:49:25;3.70;99.90
12111;DHT22;6119;52.372;8.990;2024-01-06T15:52:13;3.70;99.90
12111;DHT22;6119;52.372;8.990;2024-01-06T15:54:59;3.70;99.90
12111;DHT22;6119;52.372;8.990;2024-01-06T15:57:46;3.70;99.90
12111;DHT22;6119;52.372;8.990;2024-01-06T16:00:32;3.70;99.90
12111;DHT22;6119;52.372;8.990;2024-01-06T16:03:21;3.70;99.90
12111;DHT22;6119;52.372;8.990;2024-01-06T16:06:09;3.80;99.90
12111;DHT22;6119;52.372;8.990;2024-01-06T16:08:56;3.70;99.90
12111;DHT22;6119;52.372;8.990;2024-01-06T16:11:43;3.70;99.90
12111;DHT22;6119;52.372;8.990;2024-01-06T16:14:29;3.70;99.90
12111;DHT22;6119;52.372;8.990;2024-01-06T16:17:20;3.70;99.90
12111;DHT22;6119;52.372;8.990;2024-01-06T16:20:08;3.70;99.90
12111;DHT22;6119;52.372;8.990;2024-01-06T16:22:56;3.70;99.90
12111;DHT22;6119;52.372;8.990;2024-01-06T16:25:43;3.60;99.90
12111;DHT22;6119;52.372;8.990;2024-01-06T16:28:31;3.60;99.90
12111;DHT22;6119;52.372;8.990;2024-01-06T16:31:18;3.60;99.90
12111;DHT22;6119;52.372;8.990;2024-01-06T16:34:10;3.60;99.90
12111;DHT22;6119;52.372;8.990;2024-01-06T16:36:57;3.60;99.90
12111;DHT22;6119;52.372;8.990;2024-01-06T16:39:45;3.60;99.90
12111;DHT22;6119;52.372;8.990;2024-01-06T16:42:32;3.60;99.90
12111;DHT22;6119;52.372;8.990;2024-01-06T16:45:19;3.60;99.90
12111;DHT22;6119;52.372;8.990;2024-01-06T16:48:06;3.60;99.90
12111;DHT22;6119;52.372;8.990;2024-01-06T16:50:53;3.60;99.90
12111;DHT22;6119;52.372;8.990;2024-01-06T16:53:40;3.50;99.90
12111;DHT22;6119;52.372;8.990;2024-01-06T16:56:28;3.50;99.90
12111;DHT22;6119;52.372;8.990;2024-01-06T16:59:16;3.50;99.90
12111;DHT22;6119;52.372;8.990;2024-01-06T17:02:03;3.40;99.90
12111;DHT22;6119;52.372;8.990;2024-01-06T17:04:49;3.50;99.90
12111;DHT22;6119;52.372;8.990;2024-01-06T17:07:36;3.50;99.90
12111;DHT22;6119;52.372;8.990;2024-01-06T17:10:26;3.50;99.90
12111;DHT22;6119;52.372;8.990;2024-01-06T17:13:14;3.40;99.90
12111;DHT22;6119;52.372;8.990;2024-01-06T17:16:03;3.40;99.90
12111;DHT22;6119;52.372;8.990;2024-01-06T17:18:49;3.40;99.90
12111;DHT22;6119;52.372;8.990;2024-01-06T17:21:36;3.50;99.90
12111;DHT22;6119;52.372;8.990;2024-01-06T17:24:23;3.50;99.90
12111;DHT22;6119;52.372;8.990;2024-01-06T17:27:11;3.40;99.90
12111;DHT22;6119;52.372;8.990;2024-01-06T17:30:00;3.40;99.90
12111;DHT22;6119;52.372;8.990;2024-01-06T17:32:47;3.40;99.90
12111;DHT22;6119;52.372;8.990;2024-01-06T17:35:33;3.30;99.90
12111;DHT22;6119;52.372;8.990;2024-01-06T17:38:20;3.40;99.90
12111;DHT22;6119;52.372;8.990;2024-01-06T17:41:07;3.40;99.90
12111;DHT22;6119;52.372;8.990;2024-01-06T17:43:53;3.40;99.90
12111;DHT22;6119;52.372;8.990;2024-01-06T17:46:44;3.30;99.90
12111;DHT22;6119;52.372;8.990;2024-01-06T17:49:31;3.10;99.90
12111;DHT22;6119;52.372;8.990;2024-01-06T17:52:17;3.30;99.90
12111;DHT22;6119;52.372;8.990;2024-01-06T17:55:05;3.20;99.90
12111;DHT22;6119;52.372;8.990;2024-01-06T17:57:52;2.20;99.90
12111;DHT22;6119;52.372;8.990;2024-01-06T18:00:39;3.10;99.90
12111;DHT22;6119;52.372;8.990;2024-01-06T18:03:27;3.20;99.90
12111;DHT22;6119;52.372;8.990;2024-01-06T18:06:13;3.00;99.90
12111;DHT22;6119;52.372;8.990;2024-01-06T18:09:00;3.00;99.90
12111;DHT22;6119;52.372;8.990;2024-01-06T18:11:47;3.00;99.90
12111;DHT22;6119;52.372;8.990;2024-01-06T18:14:34;3.00;99.90
12111;DHT22;6119;52.372;8.990;2024-01-06T18:17:21;3.00;99.90